sensor_id;sensor_type;location;lat;lon;timestamp;temperature;humidity
51725;DHT22;37801;53.224;6.552;2023-03-17T00:01:15;7.50;1.00
51725;DHT22;37801;53.224;6.552;2023-03-17T00:03:42;7.50;1.00
51725;DHT22;37801;53.224;6.552;2023-03-17T00:06:14;7.50;1.00
51725;DHT22;37801;53.224;6.552;2023-03-17T00:08:42;7.50;1.00
51725;DHT22;37801;53.224;6.552;2023-03-17T00:11:13;7.50;1.00
51725;DHT22;37801;53.224;6.552;2023-03-17T00:13:41;7.50;1.00
51725;DHT22;37801;53.224;6.552;2023-03-17T00:16:14;7.50;1.00
51725;DHT22;37801;53.224;6.552;2023-03-17T00:18:41;7.60;1.00
51725;DHT22;37801;53.224;6.552;2023-03-17T00:21:13;7.60;1.00
51725;DHT22;37801;53.224;6.552;2023-03-17T00:23:40;7.60;1.00
51725;DHT22;37801;53.224;6.552;2023-03-17T00:26:07;7.60;1.00
51725;DHT22;37801;53.224;6.552;2023-03-17T00:28:33;7.60;1.00
51725;DHT22;37801;53.224;6.552;2023-03-17T00:31:00;7.60;1.00
51725;DHT22;37801;53.224;6.552;2023-03-17T00:33:29;7.60;1.00
51725;DHT22;37801;53.224;6.552;2023-03-17T00:35:57;7.60;1.00
51725;DHT22;37801;53.224;6.552;2023-03-17T00:38:23;7.60;1.00
51725;DHT22;37801;53.224;6.552;2023-03-17T00:40:50;7.60;1.00
51725;DHT22;37801;53.224;6.552;2023-03-17T00:43:16;7.60;1.00
51725;DHT22;37801;53.224;6.552;2023-03-17T00:45:43;7.60;1.00
51725;DHT22;37801;53.224;6.552;2023-03-17T00:48:13;7.60;1.00
51725;DHT22;37801;53.224;6.552;2023-03-17T00:50:40;7.60;1.00
51725;DHT22;37801;53.224;6.552;2023-03-17T00:53:11;7.60;1.00
51725;DHT22;37801;53.224;6.552;2023-03-17T00:55:37;7.60;1.00
51725;DHT22;37801;53.224;6.552;2023-03-17T01:00:36;7.60;1.00
51725;DHT22;37801;53.224;6.552;2023-03-17T01:03:03;7.60;1.00
51725;DHT22;37801;53.224;6.552;2023-03-17T01:05:28;7.60;1.00
51725;DHT22;37801;53.224;6.552;2023-03-17T01:07:55;7.60;1.00
51725;DHT22;37801;53.224;6.552;2023-03-17T01:10:26;7.60;1.00
51725;DHT22;37801;53.224;6.552;2023-03-17T01:12:55;7.60;1.00
51725;DHT22;37801;53.224;6.552;2023-03-17T01:15:23;7.60;1.00
51725;DHT22;37801;53.224;6.552;2023-03-17T01:17:50;7.60;1.00
51725;DHT22;37801;53.224;6.552;2023-03-17T01:20:20;7.60;1.00
51725;DHT22;37801;53.224;6.552;2023-03-17T01:22:46;7.70;1.00
51725;DHT22;37801;53.224;6.552;2023-03-17T01:25:12;7.60;1.00
51725;DHT22;37801;53.224;6.552;2023-03-17T01:27:39;7.70;1.00
51725;DHT22;37801;53.224;6.552;2023-03-17T01:30:09;7.70;1.00
51725;DHT22;37801;53.224;6.552;2023-03-17T01:32:38;7.70;1.00
51725;DHT22;37801;53.224;6.552;2023-03-17T01:35:04;7.70;1.00
51725;DHT22;37801;53.224;6.552;2023-03-17T01:37:31;7.70;1.00
51725;DHT22;37801;53.224;6.552;2023-03-17T01:39:57;7.70;1.00
51725;DHT22;37801;53.224;6.552;2023-03-17T01:42:22;7.70;1.00
51725;DHT22;37801;53.224;6.552;2023-03-17T01:44:59;7.60;1.00
51725;DHT22;37801;53.224;6.552;2023-03-17T01:47:27;7.70;1.00
51725;DHT22;37801;53.224;6.552;2023-03-17T01:49:58;7.70;1.00
51725;DHT22;37801;53.224;6.552;2023-03-17T01:52:25;7.70;1.00
51725;DHT22;37801;53.224;6.552;2023-03-17T01:55:03;7.70;1.00
51725;DHT22;37801;53.224;6.552;2023-03-17T01:57:39;7.70;1.00
51725;DHT22;37801;53.224;6.552;2023-03-17T02:00:12;7.70;1.00
51725;DHT22;37801;53.224;6.552;2023-03-17T02:02:41;7.70;1.00
51725;DHT22;37801;53.224;6.552;2023-03-17T02:05:10;7.70;1.00
51725;DHT22;37801;53.224;6.552;2023-03-17T02:07:36;7.70;1.00
51725;DHT22;37801;53.224;6.552;2023-03-17T02:10:04;7.70;1.00
51725;DHT22;37801;53.224;6.552;2023-03-17T02:12:31;7.70;1.00
51725;DHT22;37801;53.224;6.552;2023-03-17T02:14:58;7.60;1.00
51725;DHT22;37801;53.224;6.552;2023-03-17T02:17:25;7.60;1.00
51725;DHT22;37801;53.224;6.552;2023-03-17T02:19:52;7.60;1.00
51725;DHT22;37801;53.224;6.552;2023-03-17T02:22:18;7.60;1.00
51725;DHT22;37801;53.224;6.552;2023-03-17T02:24:57;7.60;1.00
51725;DHT22;37801;53.224;6.552;2023-03-17T02:27:31;7.60;1.00
51725;DHT22;37801;53.224;6.552;2023-03-17T02:29:59;7.60;1.00
51725;DHT22;37801;53.224;6.552;2023-03-17T02:32:26;7.60;1.00
51725;DHT22;37801;53.224;6.552;2023-03-17T02:34:51;7.60;1.00
51725;DHT22;37801;53.224;6.552;2023-03-17T02:37:18;7.60;1.00
51725;DHT22;37801;53.224;6.552;2023-03-17T02:39:44;7.60;1.00
51725;DHT22;37801;53.224;6.552;2023-03-17T02:42:11;7.50;1.00
51725;DHT22;37801;53.224;6.552;2023-03-17T02:44:38;7.60;1.00
51725;DHT22;37801;53.224;6.552;2023-03-17T02:47:04;7.60;1.00
51725;DHT22;37801;53.224;6.552;2023-03-17T02:49:33;7.60;1.00
51725;DHT22;37801;53.224;6.552;2023-03-17T02:51:59;7.60;1.00
51725;DHT22;37801;53.224;6.552;2023-03-17T02:54:25;7.60;1.00
51725;DHT22;37801;53.224;6.552;2023-03-17T02:56:51;7.60;1.00
51725;DHT22;37801;53.224;6.552;2023-03-17T02:59:17;7.60;1.00
51725;DHT22;37801;53.224;6.552;2023-03-17T03:01:43;7.60;1.00
51725;DHT22;37801;53.224;6.552;2023-03-17T03:04:08;7.50;1.00
51725;DHT22;37801;53.224;6.552;2023-03-17T03:06:34;7.60;1.00
51725;DHT22;37801;53.224;6.552;2023-03-17T03:09:01;7.60;1.00
51725;DHT22;37801;53.224;6.552;2023-03-17T03:11:28;7.50;1.00
51725;DHT22;37801;53.224;6.552;2023-03-17T03:13:54;7.50;1.00
51725;DHT22;37801;53.224;6.552;2023-03-17T03:16:20;7.50;1.00
51725;DHT22;37801;53.224;6.552;2023-03-17T03:18:46;7.50;1.00
51725;DHT22;37801;53.224;6.552;2023-03-17T03:21:12;7.50;1.00
51725;DHT22;37801;53.224;6.552;2023-03-17T03:23:38;7.50;1.00
51725;DHT22;37801;53.224;6.552;2023-03-17T03:26:04;7.40;1.00
51725;DHT22;37801;53.224;6.552;2023-03-17T03:28:30;7.40;1.00
51725;DHT22;37801;53.224;6.552;2023-03-17T03:30:56;7.40;1.00
51725;DHT22;37801;53.224;6.552;2023-03-17T03:33:22;7.40;1.00
51725;DHT22;37801;53.224;6.552;2023-03-17T03:35:47;7.40;1.00
51725;DHT22;37801;53.224;6.552;2023-03-17T03:38:13;7.40;1.00
51725;DHT22;37801;53.224;6.552;2023-03-17T03:40:39;7.40;1.00
51725;DHT22;37801;53.224;6.552;2023-03-17T03:43:05;7.40;1.00
51725;DHT22;37801;53.224;6.552;2023-03-17T03:45:31;7.40;1.00
51725;DHT22;37801;53.224;6.552;2023-03-17T03:47:57;7.40;1.00
51725;DHT22;37801;53.224;6.552;2023-03-17T03:50:23;7.40;1.00
51725;DHT22;37801;53.224;6.552;2023-03-17T03:52:49;7.50;1.00
51725;DHT22;37801;53.224;6.552;2023-03-17T03:55:15;7.50;1.00
51725;DHT22;37801;53.224;6.552;2023-03-17T03:57:41;7.50;1.00
51725;DHT22;37801;53.224;6.552;2023-03-17T04:00:07;7.50;1.00
51725;DHT22;37801;53.224;6.552;2023-03-17T04:02:34;7.50;1.00
51725;DHT22;37801;53.224;6.552;2023-03-17T04:04:59;7.50;1.00
51725;DHT22;37801;53.224;6.552;2023-03-17T04:07:26;7.50;1.00
51725;DHT22;37801;53.224;6.552;2023-03-17T04:09:52;7.50;1.00
51725;DHT22;37801;53.224;6.552;2023-03-17T04:12:18;7.50;1.00
51725;DHT22;37801;53.224;6.552;2023-03-17T04:14:44;7.50;1.00
51725;DHT22;37801;53.224;6.552;2023-03-17T04:17:10;7.40;1.00
51725;DHT22;37801;53.224;6.552;2023-03-17T04:19:37;7.40;1.00
51725;DHT22;37801;53.224;6.552;2023-03-17T04:22:04;7.50;1.00
51725;DHT22;37801;53.224;6.552;2023-03-17T04:24:30;7.50;1.00
51725;DHT22;37801;53.224;6.552;2023-03-17T04:26:56;7.50;1.00
51725;DHT22;37801;53.224;6.552;2023-03-17T04:29:22;7.40;1.00
51725;DHT22;37801;53.224;6.552;2023-03-17T04:31:48;7.40;1.00
51725;DHT22;37801;53.224;6.552;2023-03-17T04:34:16;7.40;1.00
51725;DHT22;37801;53.224;6.552;2023-03-17T04:36:46;7.40;1.00
51725;DHT22;37801;53.224;6.552;2023-03-17T04:39:13;7.40;1.00
51725;DHT22;37801;53.224;6.552;2023-03-17T04:41:39;7.30;1.00
51725;DHT22;37801;53.224;6.552;2023-03-17T04:44:05;7.30;1.00
51725;DHT22;37801;53.224;6.552;2023-03-17T04:46:32;7.30;1.00
51725;DHT22;37801;53.224;6.552;2023-03-17T04:48:58;7.40;1.00
51725;DHT22;37801;53.224;6.552;2023-03-17T04:51:24;7.30;1.00
51725;DHT22;37801;53.224;6.552;2023-03-17T04:53:50;7.20;1.00
51725;DHT22;37801;53.224;6.552;2023-03-17T04:56:17;7.20;1.00
51725;DHT22;37801;53.224;6.552;2023-03-17T04:58:42;7.20;1.00
51725;DHT22;37801;53.224;6.552;2023-03-17T05:01:08;7.20;1.00
51725;DHT22;37801;53.224;6.552;2023-03-17T05:03:34;7.20;1.00
51725;DHT22;37801;53.224;6.552;2023-03-17T05:06:01;7.20;1.00
51725;DHT22;37801;53.224;6.552;2023-03-17T05:08:28;7.20;1.00
51725;DHT22;37801;53.224;6.552;2023-03-17T05:10:54;7.20;1.00
51725;DHT22;37801;53.224;6.552;2023-03-17T05:13:20;7.20;1.00
51725;DHT22;37801;53.224;6.552;2023-03-17T05:15:47;7.20;1.00
51725;DHT22;37801;53.224;6.552;2023-03-17T05:18:14;7.20;1.00
51725;DHT22;37801;53.224;6.552;2023-03-17T05:20:39;7.20;1.00
51725;DHT22;37801;53.224;6.552;2023-03-17T05:23:06;7.20;1.00
51725;DHT22;37801;53.224;6.552;2023-03-17T05:25:32;7.20;1.00
51725;DHT22;37801;53.224;6.552;2023-03-17T05:27:57;7.20;1.00
51725;DHT22;37801;53.224;6.552;2023-03-17T05:30:24;7.20;1.00
51725;DHT22;37801;53.224;6.552;2023-03-17T05:32:50;7.20;1.00
51725;DHT22;37801;53.224;6.552;2023-03-17T05:35:16;7.20;1.00
51725;DHT22;37801;53.224;6.552;2023-03-17T05:37:43;7.20;1.00
51725;DHT22;37801;53.224;6.552;2023-03-17T05:40:11;7.20;1.00
51725;DHT22;37801;53.224;6.552;2023-03-17T05:42:37;7.20;1.00
51725;DHT22;37801;53.224;6.552;2023-03-17T05:45:04;7.20;1.00
51725;DHT22;37801;53.224;6.552;2023-03-17T05:47:31;7.30;1.00
51725;DHT22;37801;53.224;6.552;2023-03-17T05:49:58;7.30;1.00
51725;DHT22;37801;53.224;6.552;2023-03-17T05:52:24;7.30;1.00
51725;DHT22;37801;53.224;6.552;2023-03-17T05:54:50;7.30;1.00
51725;DHT22;37801;53.224;6.552;2023-03-17T05:57:17;7.40;1.00
51725;DHT22;37801;53.224;6.552;2023-03-17T05:59:42;7.40;1.00
51725;DHT22;37801;53.224;6.552;2023-03-17T06:02:08;7.40;1.00
51725;DHT22;37801;53.224;6.552;2023-03-17T06:04:35;7.40;1.00
51725;DHT22;37801;53.224;6.552;2023-03-17T06:07:01;7.40;1.00
51725;DHT22;37801;53.224;6.552;2023-03-17T06:09:27;7.40;1.00
51725;DHT22;37801;53.224;6.552;2023-03-17T06:11:53;7.40;1.00
51725;DHT22;37801;53.224;6.552;2023-03-17T06:14:18;7.40;1.00
51725;DHT22;37801;53.224;6.552;2023-03-17T06:16:44;7.50;1.00
51725;DHT22;37801;53.224;6.552;2023-03-17T06:19:10;7.40;1.00
51725;DHT22;37801;53.224;6.552;2023-03-17T06:21:36;7.50;1.00
51725;DHT22;37801;53.224;6.552;2023-03-17T06:24:02;7.50;1.00
51725;DHT22;37801;53.224;6.552;2023-03-17T06:26:28;7.50;1.00
51725;DHT22;37801;53.224;6.552;2023-03-17T06:28:54;7.50;1.00
51725;DHT22;37801;53.224;6.552;2023-03-17T06:31:19;7.50;1.00
51725;DHT22;37801;53.224;6.552;2023-03-17T06:33:46;7.60;1.00
51725;DHT22;37801;53.224;6.552;2023-03-17T06:36:12;7.60;1.00
51725;DHT22;37801;53.224;6.552;2023-03-17T06:38:38;7.60;1.00
51725;DHT22;37801;53.224;6.552;2023-03-17T06:41:04;7.60;1.00
51725;DHT22;37801;53.224;6.552;2023-03-17T06:43:30;7.60;1.00
51725;DHT22;37801;53.224;6.552;2023-03-17T06:45:57;7.70;1.00
51725;DHT22;37801;53.224;6.552;2023-03-17T06:48:23;7.70;1.00
51725;DHT22;37801;53.224;6.552;2023-03-17T06:50:49;7.70;1.00
51725;DHT22;37801;53.224;6.552;2023-03-17T06:53:15;7.70;1.00
51725;DHT22;37801;53.224;6.552;2023-03-17T06:55:41;7.70;1.00
51725;DHT22;37801;53.224;6.552;2023-03-17T06:58:07;7.70;1.00
51725;DHT22;37801;53.224;6.552;2023-03-17T07:00:35;7.70;1.00
51725;DHT22;37801;53.224;6.552;2023-03-17T07:03:03;7.70;1.00
51725;DHT22;37801;53.224;6.552;2023-03-17T07:05:30;7.70;1.00
51725;DHT22;37801;53.224;6.552;2023-03-17T07:07:56;7.70;1.00
51725;DHT22;37801;53.224;6.552;2023-03-17T07:10:22;7.70;1.00
51725;DHT22;37801;53.224;6.552;2023-03-17T07:12:49;7.80;1.00
51725;DHT22;37801;53.224;6.552;2023-03-17T07:15:14;7.80;1.00
51725;DHT22;37801;53.224;6.552;2023-03-17T07:17:41;7.80;1.00
51725;DHT22;37801;53.224;6.552;2023-03-17T07:20:09;7.80;1.00
51725;DHT22;37801;53.224;6.552;2023-03-17T07:22:36;7.90;1.00
51725;DHT22;37801;53.224;6.552;2023-03-17T07:25:01;7.90;1.00
51725;DHT22;37801;53.224;6.552;2023-03-17T07:27:27;8.00;1.00
51725;DHT22;37801;53.224;6.552;2023-03-17T07:29:53;8.00;1.00
51725;DHT22;37801;53.224;6.552;2023-03-17T07:32:19;8.00;1.00
51725;DHT22;37801;53.224;6.552;2023-03-17T07:34:45;8.10;1.00
51725;DHT22;37801;53.224;6.552;2023-03-17T07:37:11;8.20;1.00
51725;DHT22;37801;53.224;6.552;2023-03-17T07:39:37;8.20;1.00
51725;DHT22;37801;53.224;6.552;2023-03-17T07:42:03;8.20;1.00
51725;DHT22;37801;53.224;6.552;2023-03-17T07:44:29;8.30;1.00
51725;DHT22;37801;53.224;6.552;2023-03-17T07:46:55;8.40;1.00
51725;DHT22;37801;53.224;6.552;2023-03-17T07:49:21;8.40;1.00
51725;DHT22;37801;53.224;6.552;2023-03-17T07:51:47;8.50;1.00
51725;DHT22;37801;53.224;6.552;2023-03-17T07:54:13;8.50;1.00
51725;DHT22;37801;53.224;6.552;2023-03-17T07:56:40;8.50;1.00
51725;DHT22;37801;53.224;6.552;2023-03-17T07:59:07;8.50;1.00
51725;DHT22;37801;53.224;6.552;2023-03-17T08:01:33;8.60;1.00
51725;DHT22;37801;53.224;6.552;2023-03-17T08:03:59;8.60;1.00
51725;DHT22;37801;53.224;6.552;2023-03-17T08:06:26;8.70;1.00
51725;DHT22;37801;53.224;6.552;2023-03-17T08:08:53;8.70;1.00
51725;DHT22;37801;53.224;6.552;2023-03-17T08:11:19;8.80;1.00
51725;DHT22;37801;53.224;6.552;2023-03-17T08:13:45;8.80;1.00
51725;DHT22;37801;53.224;6.552;2023-03-17T08:16:11;8.90;1.00
51725;DHT22;37801;53.224;6.552;2023-03-17T08:18:37;9.00;1.00
51725;DHT22;37801;53.224;6.552;2023-03-17T08:21:03;9.10;1.00
51725;DHT22;37801;53.224;6.552;2023-03-17T08:23:29;9.10;1.00
51725;DHT22;37801;53.224;6.552;2023-03-17T08:26:00;9.20;1.00
51725;DHT22;37801;53.224;6.552;2023-03-17T08:28:28;9.20;1.00
51725;DHT22;37801;53.224;6.552;2023-03-17T08:30:54;9.20;1.00
51725;DHT22;37801;53.224;6.552;2023-03-17T08:33:21;9.20;1.00
51725;DHT22;37801;53.224;6.552;2023-03-17T08:35:47;9.20;1.00
51725;DHT22;37801;53.224;6.552;2023-03-17T08:38:13;9.20;1.00
51725;DHT22;37801;53.224;6.552;2023-03-17T08:40:39;9.30;1.00
51725;DHT22;37801;53.224;6.552;2023-03-17T08:43:06;9.20;1.00
51725;DHT22;37801;53.224;6.552;2023-03-17T08:45:32;9.20;1.00
51725;DHT22;37801;53.224;6.552;2023-03-17T08:47:58;9.20;1.00
51725;DHT22;37801;53.224;6.552;2023-03-17T08:50:24;9.20;1.00
51725;DHT22;37801;53.224;6.552;2023-03-17T08:52:50;9.20;1.00
51725;DHT22;37801;53.224;6.552;2023-03-17T08:55:17;9.30;1.00
51725;DHT22;37801;53.224;6.552;2023-03-17T08:57:44;9.40;1.00
51725;DHT22;37801;53.224;6.552;2023-03-17T09:00:13;9.40;1.00
51725;DHT22;37801;53.224;6.552;2023-03-17T09:02:41;9.40;1.00
51725;DHT22;37801;53.224;6.552;2023-03-17T09:05:10;9.50;1.00
51725;DHT22;37801;53.224;6.552;2023-03-17T09:07:37;9.60;1.00
51725;DHT22;37801;53.224;6.552;2023-03-17T09:10:05;9.60;1.00
51725;DHT22;37801;53.224;6.552;2023-03-17T09:12:32;9.70;1.00
51725;DHT22;37801;53.224;6.552;2023-03-17T09:14:58;9.80;1.00
51725;DHT22;37801;53.224;6.552;2023-03-17T09:17:24;9.70;1.00
51725;DHT22;37801;53.224;6.552;2023-03-17T09:19:49;9.70;1.00
51725;DHT22;37801;53.224;6.552;2023-03-17T09:22:16;9.70;1.00
51725;DHT22;37801;53.224;6.552;2023-03-17T09:24:43;9.60;1.00
51725;DHT22;37801;53.224;6.552;2023-03-17T09:27:09;9.60;1.00
51725;DHT22;37801;53.224;6.552;2023-03-17T09:29:35;9.70;1.00
51725;DHT22;37801;53.224;6.552;2023-03-17T09:32:01;9.60;1.00
51725;DHT22;37801;53.224;6.552;2023-03-17T09:34:27;9.70;1.00
51725;DHT22;37801;53.224;6.552;2023-03-17T09:36:53;9.70;1.00
51725;DHT22;37801;53.224;6.552;2023-03-17T09:39:19;9.70;1.00
51725;DHT22;37801;53.224;6.552;2023-03-17T09:49:34;9.70;1.00
51725;DHT22;37801;53.224;6.552;2023-03-17T09:52:02;9.80;1.00
51725;DHT22;37801;53.224;6.552;2023-03-17T09:54:32;9.80;1.00
51725;DHT22;37801;53.224;6.552;2023-03-17T09:57:24;9.80;1.00
51725;DHT22;37801;53.224;6.552;2023-03-17T10:00:03;9.90;1.00
51725;DHT22;37801;53.224;6.552;2023-03-17T10:02:36;9.90;1.00
51725;DHT22;37801;53.224;6.552;2023-03-17T10:05:22;9.90;1.00
51725;DHT22;37801;53.224;6.552;2023-03-17T10:11:05;9.90;1.00
51725;DHT22;37801;53.224;6.552;2023-03-17T10:14:10;10.00;1.00
51725;DHT22;37801;53.224;6.552;2023-03-17T10:19:26;10.20;1.00
51725;DHT22;37801;53.224;6.552;2023-03-17T10:24:51;10.30;1.00
51725;DHT22;37801;53.224;6.552;2023-03-17T10:27:19;10.30;1.00
51725;DHT22;37801;53.224;6.552;2023-03-17T10:29:46;10.30;1.00
51725;DHT22;37801;53.224;6.552;2023-03-17T10:32:12;10.30;1.00
51725;DHT22;37801;53.224;6.552;2023-03-17T10:34:39;10.30;1.00
51725;DHT22;37801;53.224;6.552;2023-03-17T10:39:45;10.30;1.00
51725;DHT22;37801;53.224;6.552;2023-03-17T10:42:22;10.20;1.00
51725;DHT22;37801;53.224;6.552;2023-03-17T10:44:55;10.30;1.00
51725;DHT22;37801;53.224;6.552;2023-03-17T10:49:50;10.40;1.00
51725;DHT22;37801;53.224;6.552;2023-03-17T10:52:29;10.40;1.00
51725;DHT22;37801;53.224;6.552;2023-03-17T10:55:00;10.50;1.00
51725;DHT22;37801;53.224;6.552;2023-03-17T10:57:27;10.60;1.00
51725;DHT22;37801;53.224;6.552;2023-03-17T10:59:54;10.70;1.00
51725;DHT22;37801;53.224;6.552;2023-03-17T11:02:28;10.90;1.00
51725;DHT22;37801;53.224;6.552;2023-03-17T11:05:21;10.90;1.00
51725;DHT22;37801;53.224;6.552;2023-03-17T11:07:47;10.90;1.00
51725;DHT22;37801;53.224;6.552;2023-03-17T11:10:21;10.90;1.00
51725;DHT22;37801;53.224;6.552;2023-03-17T11:13:15;10.90;1.00
51725;DHT22;37801;53.224;6.552;2023-03-17T11:15:47;10.90;1.00
51725;DHT22;37801;53.224;6.552;2023-03-17T11:18:29;11.00;1.00
51725;DHT22;37801;53.224;6.552;2023-03-17T11:21:04;11.00;1.00
51725;DHT22;37801;53.224;6.552;2023-03-17T11:23:52;10.90;1.00
51725;DHT22;37801;53.224;6.552;2023-03-17T11:26:47;10.90;1.00
51725;DHT22;37801;53.224;6.552;2023-03-17T11:32:25;10.80;1.00
51725;DHT22;37801;53.224;6.552;2023-03-17T11:38:08;10.80;1.00
51725;DHT22;37801;53.224;6.552;2023-03-17T11:41:16;10.90;1.00
51725;DHT22;37801;53.224;6.552;2023-03-17T11:46:46;10.90;1.00
51725;DHT22;37801;53.224;6.552;2023-03-17T11:49:36;10.90;1.00
51725;DHT22;37801;53.224;6.552;2023-03-17T11:55:00;11.00;1.00
51725;DHT22;37801;53.224;6.552;2023-03-17T11:57:50;11.10;1.00
51725;DHT22;37801;53.224;6.552;2023-03-17T12:00:37;11.20;1.00
51725;DHT22;37801;53.224;6.552;2023-03-17T12:06:03;11.30;1.00
51725;DHT22;37801;53.224;6.552;2023-03-17T12:08:54;11.30;1.00
51725;DHT22;37801;53.224;6.552;2023-03-17T12:11:27;11.40;1.00
51725;DHT22;37801;53.224;6.552;2023-03-17T12:14:22;11.40;1.00
51725;DHT22;37801;53.224;6.552;2023-03-17T12:20:00;11.50;1.00
51725;DHT22;37801;53.224;6.552;2023-03-17T12:25:18;11.50;1.00
51725;DHT22;37801;53.224;6.552;2023-03-17T12:36:14;11.70;1.00
51725;DHT22;37801;53.224;6.552;2023-03-17T12:52:40;11.90;1.00
51725;DHT22;37801;53.224;6.552;2023-03-17T12:54:46;12.00;1.00
51725;DHT22;37801;53.224;6.552;2023-03-17T12:59:44;12.20;1.00
51725;DHT22;37801;53.224;6.552;2023-03-17T13:02:15;12.50;1.00
51725;DHT22;37801;53.224;6.552;2023-03-17T13:04:50;12.50;1.00
51725;DHT22;37801;53.224;6.552;2023-03-17T13:07:33;12.50;1.00
51725;DHT22;37801;53.224;6.552;2023-03-17T13:21:12;12.70;1.00
51725;DHT22;37801;53.224;6.552;2023-03-17T13:24:21;12.70;1.00
51725;DHT22;37801;53.224;6.552;2023-03-17T13:27:01;12.80;1.00
51725;DHT22;37801;53.224;6.552;2023-03-17T13:34:53;12.70;1.00
51725;DHT22;37801;53.224;6.552;2023-03-17T13:37:33;12.70;1.00
51725;DHT22;37801;53.224;6.552;2023-03-17T13:45:42;12.70;1.00
51725;DHT22;37801;53.224;6.552;2023-03-17T13:48:31;12.80;1.00
51725;DHT22;37801;53.224;6.552;2023-03-17T13:53:40;12.90;1.00
51725;DHT22;37801;53.224;6.552;2023-03-17T14:01:17;13.20;1.00
51725;DHT22;37801;53.224;6.552;2023-03-17T14:03:48;13.30;1.00
51725;DHT22;37801;53.224;6.552;2023-03-17T14:06:17;13.30;1.00
51725;DHT22;37801;53.224;6.552;2023-03-17T14:08:56;13.30;1.00
51725;DHT22;37801;53.224;6.552;2023-03-17T14:11:34;13.30;1.00
51725;DHT22;37801;53.224;6.552;2023-03-17T14:17:08;13.20;1.00
51725;DHT22;37801;53.224;6.552;2023-03-17T14:19:35;13.30;1.00
51725;DHT22;37801;53.224;6.552;2023-03-17T14:22:26;13.20;1.00
51725;DHT22;37801;53.224;6.552;2023-03-17T14:24:53;13.20;1.00
51725;DHT22;37801;53.224;6.552;2023-03-17T14:27:22;13.30;1.00
51725;DHT22;37801;53.224;6.552;2023-03-17T14:29:49;13.20;1.00
51725;DHT22;37801;53.224;6.552;2023-03-17T14:32:18;13.20;1.00
51725;DHT22;37801;53.224;6.552;2023-03-17T14:34:53;13.10;1.00
51725;DHT22;37801;53.224;6.552;2023-03-17T14:37:20;13.00;1.00
51725;DHT22;37801;53.224;6.552;2023-03-17T14:39:49;13.00;1.00
51725;DHT22;37801;53.224;6.552;2023-03-17T14:42:19;13.00;1.00
51725;DHT22;37801;53.224;6.552;2023-03-17T14:44:45;12.90;1.00
51725;DHT22;37801;53.224;6.552;2023-03-17T14:47:18;12.90;1.00
51725;DHT22;37801;53.224;6.552;2023-03-17T14:49:44;12.80;1.00
51725;DHT22;37801;53.224;6.552;2023-03-17T14:52:23;12.80;1.00
51725;DHT22;37801;53.224;6.552;2023-03-17T14:54:52;12.80;1.00
51725;DHT22;37801;53.224;6.552;2023-03-17T14:57:22;12.60;1.00
51725;DHT22;37801;53.224;6.552;2023-03-17T15:00:30;12.60;1.00
51725;DHT22;37801;53.224;6.552;2023-03-17T15:02:59;12.40;1.00
51725;DHT22;37801;53.224;6.552;2023-03-17T15:05:36;12.40;1.00
51725;DHT22;37801;53.224;6.552;2023-03-17T15:10:59;12.20;1.00
51725;DHT22;37801;53.224;6.552;2023-03-17T15:13:26;12.10;1.00
51725;DHT22;37801;53.224;6.552;2023-03-17T15:15:52;12.10;1.00
51725;DHT22;37801;53.224;6.552;2023-03-17T15:18:18;12.10;1.00
51725;DHT22;37801;53.224;6.552;2023-03-17T15:20:48;12.00;1.00
51725;DHT22;37801;53.224;6.552;2023-03-17T15:23:17;12.00;11.20
51725;DHT22;37801;53.224;6.552;2023-03-17T15:25:45;11.90;20.70
51725;DHT22;37801;53.224;6.552;2023-03-17T15:28:20;11.80;27.90
51725;DHT22;37801;53.224;6.552;2023-03-17T15:30:48;11.80;42.10
51725;DHT22;37801;53.224;6.552;2023-03-17T15:33:35;11.70;43.00
51725;DHT22;37801;53.224;6.552;2023-03-17T15:36:02;11.60;52.00
51725;DHT22;37801;53.224;6.552;2023-03-17T15:38:29;11.60;44.40
51725;DHT22;37801;53.224;6.552;2023-03-17T15:40:55;11.60;53.00
51725;DHT22;37801;53.224;6.552;2023-03-17T15:43:21;11.70;47.70
51725;DHT22;37801;53.224;6.552;2023-03-17T15:45:54;11.70;38.60
51725;DHT22;37801;53.224;6.552;2023-03-17T15:48:24;11.70;45.00
51725;DHT22;37801;53.224;6.552;2023-03-17T15:50:52;11.60;60.80
51725;DHT22;37801;53.224;6.552;2023-03-17T15:53:20;11.60;75.90
51725;DHT22;37801;53.224;6.552;2023-03-17T15:55:46;11.60;81.50
51725;DHT22;37801;53.224;6.552;2023-03-17T15:58:13;11.60;87.30
51725;DHT22;37801;53.224;6.552;2023-03-17T16:00:39;11.60;92.40
51725;DHT22;37801;53.224;6.552;2023-03-17T16:03:28;11.50;95.90
51725;DHT22;37801;53.224;6.552;2023-03-17T16:05:54;11.50;99.90
51725;DHT22;37801;53.224;6.552;2023-03-17T16:08:20;11.40;99.90
51725;DHT22;37801;53.224;6.552;2023-03-17T16:10:46;11.40;99.90
51725;DHT22;37801;53.224;6.552;2023-03-17T16:13:12;11.40;99.90
51725;DHT22;37801;53.224;6.552;2023-03-17T16:15:41;11.40;99.90
51725;DHT22;37801;53.224;6.552;2023-03-17T16:18:15;11.40;99.90
51725;DHT22;37801;53.224;6.552;2023-03-17T16:20:45;11.30;99.90
51725;DHT22;37801;53.224;6.552;2023-03-17T16:23:18;11.30;99.90
51725;DHT22;37801;53.224;6.552;2023-03-17T16:25:46;11.30;99.90
51725;DHT22;37801;53.224;6.552;2023-03-17T16:28:21;11.20;99.90
51725;DHT22;37801;53.224;6.552;2023-03-17T16:30:47;11.20;99.90
51725;DHT22;37801;53.224;6.552;2023-03-17T16:33:39;11.10;99.90
51725;DHT22;37801;53.224;6.552;2023-03-17T16:36:04;11.10;99.90
51725;DHT22;37801;53.224;6.552;2023-03-17T16:38:32;11.10;99.90
51725;DHT22;37801;53.224;6.552;2023-03-17T16:41:00;11.00;99.90
51725;DHT22;37801;53.224;6.552;2023-03-17T16:43:34;11.00;99.90
51725;DHT22;37801;53.224;6.552;2023-03-17T16:46:03;11.00;99.90
51725;DHT22;37801;53.224;6.552;2023-03-17T16:48:29;10.90;99.90
51725;DHT22;37801;53.224;6.552;2023-03-17T16:50:56;10.80;99.90
51725;DHT22;37801;53.224;6.552;2023-03-17T16:53:22;10.80;99.90
51725;DHT22;37801;53.224;6.552;2023-03-17T16:55:50;10.80;99.90
51725;DHT22;37801;53.224;6.552;2023-03-17T16:58:26;10.80;99.90
51725;DHT22;37801;53.224;6.552;2023-03-17T17:00:57;10.70;99.90
51725;DHT22;37801;53.224;6.552;2023-03-17T17:03:24;10.70;99.90
51725;DHT22;37801;53.224;6.552;2023-03-17T17:05:50;10.70;99.90
51725;DHT22;37801;53.224;6.552;2023-03-17T17:08:15;10.60;99.90
51725;DHT22;37801;53.224;6.552;2023-03-17T17:10:41;10.60;99.90
51725;DHT22;37801;53.224;6.552;2023-03-17T17:13:08;10.60;99.90
51725;DHT22;37801;53.224;6.552;2023-03-17T17:15:35;10.50;99.90
51725;DHT22;37801;53.224;6.552;2023-03-17T17:18:10;10.50;99.90
51725;DHT22;37801;53.224;6.552;2023-03-17T17:20:38;10.50;99.90
51725;DHT22;37801;53.224;6.552;2023-03-17T17:23:05;10.40;99.90
51725;DHT22;37801;53.224;6.552;2023-03-17T17:25:32;10.40;99.90
51725;DHT22;37801;53.224;6.552;2023-03-17T17:27:58;10.40;99.90
51725;DHT22;37801;53.224;6.552;2023-03-17T17:30:26;10.40;99.90
51725;DHT22;37801;53.224;6.552;2023-03-17T17:32:53;10.40;99.90
51725;DHT22;37801;53.224;6.552;2023-03-17T17:35:21;10.40;99.90
51725;DHT22;37801;53.224;6.552;2023-03-17T17:37:47;10.30;99.90
51725;DHT22;37801;53.224;6.552;2023-03-17T17:40:16;10.30;99.90
51725;DHT22;37801;53.224;6.552;2023-03-17T17:42:43;10.30;99.90
51725;DHT22;37801;53.224;6.552;2023-03-17T17:45:12;10.30;99.90
51725;DHT22;37801;53.224;6.552;2023-03-17T17:47:38;10.30;99.90
51725;DHT22;37801;53.224;6.552;2023-03-17T17:50:05;10.30;99.90